createdAt,value
2022-09-06T00:00:51.468Z,8.50
2022-09-06T00:03:21.203Z,6.03
2022-09-06T00:05:50.939Z,6.43
2022-09-06T00:08:20.599Z,8.48
2022-09-06T00:10:50.313Z,6.97
2022-09-06T00:13:20.079Z,13.98
2022-09-06T00:15:50.040Z,6.53
2022-09-06T00:18:20.088Z,7.13
2022-09-06T00:20:49.596Z,7.28
2022-09-06T00:23:19.143Z,6.50
2022-09-06T00:25:48.915Z,7.00
2022-09-06T00:28:18.753Z,5.75
2022-09-06T00:30:49.086Z,5.45
2022-09-06T00:33:19.263Z,5.63
2022-09-06T00:35:50.800Z,4.82
2022-09-06T00:38:20.650Z,6.85
2022-09-06T00:40:50.367Z,5.22
2022-09-06T00:43:19.929Z,8.65
2022-09-06T00:45:49.604Z,13.35
2022-09-06T00:48:19.285Z,5.68
2022-09-06T00:50:52.313Z,6.57
2022-09-06T00:53:22.031Z,6.40
2022-09-06T00:55:51.610Z,4.65
2022-09-06T00:58:21.434Z,4.38
2022-09-06T01:00:51.203Z,4.60
2022-09-06T01:03:21.591Z,4.70
2022-09-06T01:06:03.572Z,5.00
2022-09-06T01:08:40.600Z,5.57
2022-09-06T01:11:10.181Z,5.72
2022-09-06T01:13:48.980Z,5.45
2022-09-06T01:16:27.608Z,4.78
2022-09-06T01:19:03.394Z,5.30
2022-09-06T01:21:36.213Z,4.90
2022-09-06T01:24:26.736Z,5.70
2022-09-06T01:26:56.409Z,7.25
2022-09-06T01:29:30.717Z,7.82
2022-09-06T01:32:07.913Z,7.72
2022-09-06T01:34:38.189Z,7.13
2022-09-06T01:37:10.822Z,6.53
2022-09-06T01:39:41.259Z,8.27
2022-09-06T01:42:18.909Z,8.10
2022-09-06T01:44:49.772Z,7.10
2022-09-06T01:47:27.089Z,9.75
2022-09-06T01:50:05.900Z,10.23
2022-09-06T01:52:50.831Z,10.23
2022-09-06T01:55:24.146Z,10.70
2022-09-06T01:58:12.182Z,11.00
2022-09-06T02:00:48.579Z,11.63
2022-09-06T02:03:29.356Z,10.20
2022-09-06T02:06:05.154Z,10.10
2022-09-06T02:08:53.885Z,10.85
2022-09-06T02:11:23.394Z,11.27
2022-09-06T02:14:00.308Z,11.35
2022-09-06T02:16:31.396Z,11.13
2022-09-06T02:19:05.014Z,9.68
2022-09-06T02:21:35.756Z,10.40
2022-09-06T02:24:09.626Z,9.38
2022-09-06T02:26:40.060Z,10.10
2022-09-06T02:29:09.934Z,10.00
2022-09-06T02:31:48.572Z,9.70
2022-09-06T02:34:19.530Z,9.40
2022-09-06T02:36:49.375Z,9.63
2022-09-06T02:39:18.860Z,9.15
2022-09-06T02:41:49.513Z,9.50
2022-09-06T02:44:19.195Z,10.13
2022-09-06T02:46:51.828Z,7.97
2022-09-06T02:49:24.645Z,9.25
2022-09-06T02:51:54.237Z,9.55
2022-09-06T02:54:23.883Z,8.85
2022-09-06T02:56:53.447Z,9.90
2022-09-06T02:59:23.079Z,9.82
2022-09-06T03:01:52.776Z,9.43
2022-09-06T03:04:22.643Z,8.60
2022-09-06T03:06:52.520Z,8.07
2022-09-06T03:09:21.970Z,9.63
2022-09-06T03:11:51.505Z,8.63
2022-09-06T03:14:21.387Z,9.07
2022-09-06T03:16:50.903Z,9.32
2022-09-06T03:19:21.482Z,8.75
2022-09-06T03:21:51.093Z,8.10
2022-09-06T03:24:20.634Z,8.48
2022-09-06T03:26:58.713Z,7.85
2022-09-06T03:29:28.411Z,8.40
2022-09-06T03:31:58.889Z,8.05
2022-09-06T03:34:28.406Z,6.95
2022-09-06T03:36:57.904Z,7.78
2022-09-06T03:39:27.634Z,7.70
2022-09-06T03:41:57.658Z,9.10
2022-09-06T03:44:27.228Z,9.20
2022-09-06T03:46:56.883Z,9.48
2022-09-06T03:49:26.438Z,9.25
2022-09-06T03:51:55.979Z,8.30
2022-09-06T03:54:25.962Z,9.25
2022-09-06T03:56:56.084Z,10.35
2022-09-06T03:59:26.133Z,9.05
2022-09-06T04:01:56.110Z,9.10
2022-09-06T04:04:25.701Z,9.77
2022-09-06T04:06:55.562Z,8.85
2022-09-06T04:09:25.753Z,10.25
2022-09-06T04:11:55.658Z,10.18
2022-09-06T04:14:25.196Z,11.10
2022-09-06T04:16:55.211Z,13.25
2022-09-06T04:19:25.183Z,12.88
2022-09-06T04:21:54.911Z,12.95
2022-09-06T04:24:24.688Z,13.88
2022-09-06T04:26:54.388Z,14.25
2022-09-06T04:29:23.887Z,11.68
2022-09-06T04:31:54.466Z,11.38
2022-09-06T04:34:25.236Z,13.40
2022-09-06T04:36:55.158Z,12.55
2022-09-06T04:39:24.813Z,13.98
2022-09-06T04:41:54.447Z,13.13
2022-09-06T04:44:24.046Z,13.35
2022-09-06T04:46:55.565Z,14.02
2022-09-06T04:49:25.795Z,14.48
2022-09-06T04:51:55.336Z,14.05
2022-09-06T04:54:24.797Z,13.73
2022-09-06T04:56:54.364Z,14.18
2022-09-06T04:59:24.035Z,13.95
2022-09-06T05:01:53.716Z,14.50
2022-09-06T05:04:23.925Z,15.02
2022-09-06T05:07:02.376Z,16.25
2022-09-06T05:09:32.049Z,16.20
2022-09-06T05:12:01.542Z,14.50
2022-09-06T05:14:31.154Z,15.15
2022-09-06T05:17:09.456Z,15.38
2022-09-06T05:19:39.103Z,14.13
2022-09-06T05:22:08.728Z,14.02
2022-09-06T05:24:38.403Z,13.48
2022-09-06T05:27:08.893Z,12.32
2022-09-06T05:29:38.657Z,12.80
2022-09-06T05:32:08.825Z,15.52
2022-09-06T05:34:39.234Z,15.77
2022-09-06T05:37:09.059Z,14.77
2022-09-06T05:39:38.663Z,15.52
2022-09-06T05:42:08.446Z,14.80
2022-09-06T05:44:38.281Z,17.05
2022-09-06T05:47:07.887Z,16.55
2022-09-06T05:49:37.650Z,15.55
2022-09-06T05:52:07.607Z,16.08
2022-09-06T05:54:37.362Z,15.52
2022-09-06T05:57:07.208Z,15.95
2022-09-06T05:59:36.782Z,16.35
2022-09-06T06:02:07.829Z,16.40
2022-09-06T06:04:37.680Z,15.65
2022-09-06T06:07:07.593Z,16.33
2022-09-06T06:09:37.377Z,13.15
2022-09-06T06:12:07.290Z,13.45
2022-09-06T06:14:36.807Z,14.27
2022-09-06T06:17:06.352Z,13.15
2022-09-06T06:19:35.976Z,13.63
2022-09-06T06:22:05.626Z,12.77
2022-09-06T06:24:35.264Z,12.73
2022-09-06T06:27:04.741Z,14.48
2022-09-06T06:29:34.427Z,13.88
2022-09-06T06:32:04.480Z,12.93
2022-09-06T06:34:34.594Z,11.23
2022-09-06T06:37:04.211Z,10.35
2022-09-06T06:39:34.500Z,7.43
2022-09-06T06:42:07.628Z,6.32
2022-09-06T06:44:37.845Z,7.88
2022-09-06T06:47:08.881Z,7.47
2022-09-06T06:49:38.911Z,8.57
2022-09-06T06:52:08.543Z,8.88
2022-09-06T06:54:39.022Z,9.65
2022-09-06T06:57:10.895Z,14.77
2022-09-06T06:59:41.223Z,11.85
2022-09-06T07:02:11.115Z,11.15
2022-09-06T07:04:40.916Z,11.40
2022-09-06T07:12:50.135Z,14.50
2022-09-06T07:15:19.772Z,15.73
2022-09-06T07:17:49.803Z,16.70
2022-09-06T07:20:19.487Z,16.15
2022-09-06T07:22:50.180Z,16.52
2022-09-06T07:25:21.850Z,15.80
2022-09-06T07:27:51.585Z,15.93
2022-09-06T07:30:21.993Z,17.75
2022-09-06T07:32:51.905Z,17.35
2022-09-06T07:35:22.192Z,17.05
2022-09-06T07:38:02.481Z,18.15
2022-09-06T07:40:33.061Z,18.40
2022-09-06T07:43:02.632Z,18.33
2022-09-06T07:45:32.547Z,19.02
2022-09-06T07:48:02.165Z,17.77
2022-09-06T07:50:48.970Z,17.20
2022-09-06T07:53:26.266Z,17.65
2022-09-06T07:56:01.230Z,17.08
2022-09-06T07:58:31.508Z,17.75
2022-09-06T08:01:24.414Z,16.77
2022-09-06T08:03:54.191Z,16.40
2022-09-06T08:06:24.786Z,16.80
2022-09-06T08:11:27.286Z,18.25
2022-09-06T08:13:57.324Z,15.43
2022-09-06T08:16:29.116Z,14.40
2022-09-06T08:19:02.446Z,13.35
2022-09-06T08:21:33.529Z,14.07
2022-09-06T08:24:03.844Z,14.07
2022-09-06T08:26:33.697Z,15.13
2022-09-06T08:29:08.325Z,12.73
2022-09-06T08:31:39.972Z,11.55
2022-09-06T08:34:09.940Z,9.13
2022-09-06T08:36:39.438Z,8.73
2022-09-06T08:39:11.372Z,7.35
2022-09-06T08:41:50.290Z,7.32
2022-09-06T08:47:27.849Z,6.20
2022-09-06T08:50:15.517Z,6.63
2022-09-06T08:53:06.208Z,6.38
2022-09-06T08:55:44.341Z,6.18
2022-09-06T08:58:26.508Z,4.25
2022-09-06T09:01:07.102Z,5.10
2022-09-06T09:03:38.086Z,5.20
2022-09-06T09:06:11.687Z,5.18
2022-09-06T09:08:47.834Z,5.03
2022-09-06T09:11:19.399Z,4.32
2022-09-06T09:14:08.826Z,4.88
2022-09-06T09:16:38.697Z,5.20
2022-09-06T09:19:08.524Z,5.18
2022-09-06T09:21:41.892Z,5.97
2022-09-06T09:24:12.253Z,6.00
2022-09-06T09:27:00.386Z,5.95
2022-09-06T09:29:34.398Z,6.47
2022-09-06T09:32:06.847Z,7.07
2022-09-06T09:34:37.799Z,7.60
2022-09-06T09:40:17.789Z,9.05
2022-09-06T09:42:47.594Z,8.43
2022-09-06T09:45:23.352Z,9.40
2022-09-06T09:47:53.303Z,9.13
2022-09-06T09:50:26.996Z,9.50
2022-09-06T09:52:56.554Z,10.65
2022-09-06T09:55:29.404Z,9.73
2022-09-06T09:57:59.046Z,9.15
2022-09-06T10:00:41.422Z,11.60
2022-09-06T10:03:17.719Z,12.20
2022-09-06T10:06:02.174Z,11.88
2022-09-06T10:08:33.393Z,11.30
2022-09-06T10:11:03.043Z,11.57
2022-09-06T10:13:33.039Z,11.55
2022-09-06T10:16:04.658Z,11.23
2022-09-06T10:18:37.161Z,12.45
2022-09-06T10:21:09.683Z,11.50
2022-09-06T10:26:50.770Z,13.25
2022-09-06T10:29:36.458Z,14.00
2022-09-06T10:32:26.408Z,15.80
2022-09-06T10:35:06.797Z,17.98
2022-09-06T10:37:39.387Z,16.20
2022-09-06T10:40:10.088Z,16.58
2022-09-06T10:42:49.144Z,17.15
2022-09-06T10:45:31.504Z,16.13
2022-09-06T10:48:03.657Z,17.40
2022-09-06T10:50:48.865Z,17.40
2022-09-06T10:53:20.668Z,19.77
2022-09-06T10:55:52.087Z,20.05
2022-09-06T10:58:25.279Z,21.42
2022-09-06T11:00:54.969Z,19.52
2022-09-06T11:06:26.769Z,19.38
2022-09-06T11:09:04.567Z,18.25
2022-09-06T11:11:45.417Z,18.08
2022-09-06T11:14:15.616Z,18.90
2022-09-06T11:16:52.203Z,19.00
2022-09-06T11:19:26.457Z,20.33
2022-09-06T11:22:14.668Z,20.58
2022-09-06T11:24:50.266Z,20.10
2022-09-06T11:27:22.721Z,18.88
2022-09-06T11:29:57.868Z,19.92
2022-09-06T11:32:49.876Z,23.17
2022-09-06T11:35:27.090Z,23.83
2022-09-06T11:38:06.975Z,29.25
2022-09-06T11:40:40.185Z,21.30
2022-09-06T11:43:09.792Z,24.73
2022-09-06T11:45:43.271Z,27.48
2022-09-06T11:48:28.306Z,26.45
2022-09-06T11:50:57.832Z,26.48
2022-09-06T11:53:28.184Z,23.20
2022-09-06T11:56:04.284Z,24.15
2022-09-06T11:58:43.231Z,63.10
2022-09-06T12:01:20.043Z,29.98
2022-09-06T12:04:06.700Z,25.02
2022-09-06T12:06:40.581Z,23.90
2022-09-06T12:09:28.359Z,24.02
2022-09-06T12:11:58.266Z,26.08
2022-09-06T12:14:35.630Z,23.38
2022-09-06T12:17:09.259Z,23.35
2022-09-06T12:20:08.241Z,24.92
2022-09-06T12:22:38.121Z,23.40
2022-09-06T12:25:09.515Z,22.70
2022-09-06T12:27:46.477Z,23.08
2022-09-06T12:30:16.280Z,24.08
2022-09-06T12:32:50.768Z,22.42
2022-09-06T12:38:19.224Z,23.58
2022-09-06T12:40:50.057Z,23.27
2022-09-06T12:43:19.971Z,21.05
2022-09-06T12:45:50.175Z,21.15
2022-09-06T12:48:30.614Z,20.98
2022-09-06T12:51:04.477Z,21.38
2022-09-06T12:53:35.859Z,21.23
2022-09-06T12:56:09.926Z,24.08
2022-09-06T12:58:40.911Z,20.55
2022-09-06T13:01:30.074Z,21.75
2022-09-06T13:04:10.508Z,28.90
2022-09-06T13:06:44.842Z,19.90
2022-09-06T13:09:15.883Z,19.15
2022-09-06T13:11:47.116Z,19.40
2022-09-06T13:14:19.791Z,19.10
2022-09-06T13:16:50.186Z,17.80
2022-09-06T13:19:38.466Z,17.65
2022-09-06T13:22:12.412Z,19.05
2022-09-06T13:24:47.159Z,22.45
2022-09-06T13:27:35.965Z,25.80
2022-09-06T13:30:08.138Z,28.20
2022-09-06T13:32:39.081Z,26.77
2022-09-06T13:35:11.645Z,26.50
2022-09-06T13:37:42.537Z,24.02
2022-09-06T13:40:30.809Z,23.10
2022-09-06T13:43:03.619Z,21.48
2022-09-06T13:45:33.403Z,21.27
2022-09-06T13:48:19.278Z,21.02
2022-09-06T13:50:52.815Z,21.42
2022-09-06T13:53:22.992Z,20.95
2022-09-06T13:55:54.280Z,20.95
2022-09-06T13:58:24.192Z,20.48
2022-09-06T14:00:58.250Z,19.90
2022-09-06T14:03:29.954Z,20.23
2022-09-06T14:06:01.457Z,18.75
2022-09-06T14:08:43.861Z,17.73
2022-09-06T14:11:21.155Z,18.45
2022-09-06T14:13:52.119Z,18.90
2022-09-06T14:16:22.014Z,17.95
2022-09-06T14:18:54.963Z,18.48
2022-09-06T14:21:24.739Z,17.58
2022-09-06T14:23:54.659Z,15.13
2022-09-06T14:26:24.532Z,16.67
2022-09-06T14:28:54.717Z,17.27
2022-09-06T14:31:27.304Z,24.95
2022-09-06T14:33:57.641Z,37.42
2022-09-06T14:36:28.390Z,34.67
2022-09-06T14:38:59.354Z,30.95
2022-09-06T14:41:30.405Z,27.40
2022-09-06T14:44:00.408Z,24.70
2022-09-06T14:46:36.381Z,24.83
2022-09-06T14:49:11.298Z,24.63
2022-09-06T14:51:41.296Z,22.70
2022-09-06T14:54:17.723Z,23.77
2022-09-06T14:56:47.476Z,24.90
2022-09-06T14:59:17.255Z,23.10
2022-09-06T15:01:47.366Z,20.33
2022-09-06T15:04:20.137Z,21.15
2022-09-06T15:06:50.392Z,21.10
2022-09-06T15:09:20.041Z,18.90
2022-09-06T15:11:50.768Z,19.45
2022-09-06T15:14:21.602Z,17.35
2022-09-06T15:16:55.619Z,17.30
2022-09-06T15:19:26.569Z,17.42
2022-09-06T15:21:56.825Z,15.63
2022-09-06T15:24:26.452Z,16.25
2022-09-06T15:26:56.136Z,18.60
2022-09-06T15:29:28.526Z,20.35
2022-09-06T15:31:58.737Z,16.90
2022-09-06T15:34:28.950Z,16.15
2022-09-06T15:36:58.809Z,14.55
2022-09-06T15:39:28.461Z,13.95
2022-09-06T15:41:59.472Z,14.65
2022-09-06T15:44:29.220Z,14.68
2022-09-06T15:46:59.559Z,15.15
2022-09-06T15:49:30.330Z,15.60
2022-09-06T15:52:00.967Z,13.65
2022-09-06T15:54:48.653Z,12.88
2022-09-06T15:57:18.845Z,12.75
2022-09-06T15:59:48.921Z,13.65
2022-09-06T16:02:18.665Z,13.45
2022-09-06T16:04:48.931Z,12.40
2022-09-06T16:07:18.831Z,14.80
2022-09-06T16:09:48.757Z,13.30
2022-09-06T16:12:18.473Z,12.73
2022-09-06T16:14:48.343Z,12.05
2022-09-06T16:17:18.267Z,14.68
2022-09-06T16:19:48.149Z,10.98
2022-09-06T16:22:19.100Z,10.18
2022-09-06T16:24:48.830Z,10.10
2022-09-06T16:27:18.456Z,10.65
2022-09-06T16:29:48.462Z,12.15
2022-09-06T16:32:19.061Z,12.55
2022-09-06T16:34:49.759Z,10.63
2022-09-06T16:37:19.500Z,13.27
2022-09-06T16:39:49.369Z,13.13
2022-09-06T16:42:19.065Z,12.35
2022-09-06T16:44:49.024Z,12.50
2022-09-06T16:47:19.182Z,14.38
2022-09-06T16:49:49.121Z,11.32
2022-09-06T16:52:18.811Z,11.55
2022-09-06T16:54:48.597Z,11.65
2022-09-06T16:57:18.525Z,11.63
2022-09-06T16:59:48.388Z,11.95
2022-09-06T17:02:19.504Z,10.65
2022-09-06T17:04:49.280Z,12.25
2022-09-06T17:07:19.208Z,10.90
2022-09-06T17:09:49.400Z,11.57
2022-09-06T17:12:19.151Z,12.35
2022-09-06T17:14:48.995Z,12.13
2022-09-06T17:17:19.283Z,11.80
2022-09-06T17:19:48.943Z,11.57
2022-09-06T17:22:19.117Z,11.85
2022-09-06T17:24:49.017Z,11.82
2022-09-06T17:27:18.800Z,13.45
2022-09-06T17:29:48.729Z,12.02
2022-09-06T17:32:18.703Z,12.57
2022-09-06T17:34:48.521Z,14.25
2022-09-06T17:37:18.258Z,12.48
2022-09-06T17:39:48.026Z,11.27
2022-09-06T17:42:18.835Z,12.27
2022-09-06T17:44:48.637Z,10.50
2022-09-06T17:47:18.285Z,12.25
2022-09-06T17:49:48.891Z,12.13
2022-09-06T17:52:18.830Z,12.27
2022-09-06T17:54:48.965Z,12.32
2022-09-06T17:57:18.740Z,11.77
2022-09-06T17:59:52.615Z,11.88
2022-09-06T18:02:22.475Z,11.82
2022-09-06T18:04:52.167Z,12.63
2022-09-06T18:07:21.821Z,12.38
2022-09-06T18:09:51.572Z,12.25
2022-09-06T18:12:21.783Z,11.32
2022-09-06T18:14:51.842Z,10.75
2022-09-06T18:17:21.544Z,10.85
2022-09-06T18:19:51.285Z,11.93
2022-09-06T18:22:20.990Z,11.70
2022-09-06T18:24:53.085Z,11.77
2022-09-06T18:27:26.300Z,11.90
2022-09-06T18:29:57.017Z,12.18
2022-09-06T18:32:27.476Z,12.95
2022-09-06T18:34:57.338Z,12.10
2022-09-06T18:37:28.007Z,12.68
2022-09-06T18:39:57.835Z,13.05
2022-09-06T18:42:28.679Z,12.82
2022-09-06T18:44:58.484Z,12.25
2022-09-06T18:47:28.204Z,12.25
2022-09-06T18:49:58.064Z,12.30
2022-09-06T18:52:27.746Z,12.82
2022-09-06T18:54:57.416Z,12.23
2022-09-06T18:57:27.110Z,13.30
2022-09-06T18:59:56.896Z,13.85
2022-09-06T19:02:28.017Z,13.77
2022-09-06T19:05:00.765Z,11.75
2022-09-06T19:07:30.543Z,11.23
2022-09-06T19:10:00.307Z,11.23
2022-09-06T19:12:30.017Z,11.10
2022-09-06T19:15:00.019Z,10.63
2022-09-06T19:17:29.779Z,9.70
2022-09-06T19:20:02.911Z,8.60
2022-09-06T19:22:32.764Z,8.73
2022-09-06T19:25:05.058Z,9.02
2022-09-06T19:27:35.983Z,8.93
2022-09-06T19:30:08.199Z,8.68
2022-09-06T19:32:38.392Z,9.43
2022-09-06T19:35:08.544Z,9.60
2022-09-06T19:37:39.590Z,9.90
2022-09-06T19:40:09.814Z,10.38
2022-09-06T19:42:39.638Z,9.80
2022-09-06T19:45:11.019Z,9.60
2022-09-06T19:47:40.885Z,10.15
2022-09-06T19:50:10.915Z,11.65
2022-09-06T19:52:40.639Z,11.85
2022-09-06T19:55:10.593Z,11.43
2022-09-06T19:57:40.851Z,13.00
2022-09-06T20:00:11.011Z,13.57
2022-09-06T20:02:40.633Z,14.23
2022-09-06T20:05:10.679Z,14.02
2022-09-06T20:07:40.644Z,13.38
2022-09-06T20:10:10.458Z,13.63
2022-09-06T20:12:41.053Z,14.15
2022-09-06T20:15:11.213Z,14.50
2022-09-06T20:17:40.903Z,15.13
2022-09-06T20:20:10.840Z,15.75
2022-09-06T20:22:40.674Z,16.67
2022-09-06T20:25:10.842Z,16.75
2022-09-06T20:27:44.393Z,16.20
2022-09-06T20:30:14.776Z,17.27
2022-09-06T20:32:45.270Z,16.33
2022-09-06T20:35:15.454Z,16.35
2022-09-06T20:37:45.336Z,18.45
2022-09-06T20:40:15.439Z,17.08
2022-09-06T20:42:47.600Z,18.17
2022-09-06T20:45:19.096Z,16.30
2022-09-06T20:47:48.944Z,15.77
2022-09-06T20:50:18.911Z,16.23
2022-09-06T20:52:49.118Z,14.80
2022-09-06T20:55:18.946Z,16.58
2022-09-06T20:57:52.979Z,15.32
2022-09-06T21:00:22.695Z,13.70
2022-09-06T21:02:52.386Z,13.63
2022-09-06T21:05:22.065Z,12.48
2022-09-06T21:07:52.426Z,12.07
2022-09-06T21:10:22.082Z,12.23
2022-09-06T21:12:51.701Z,12.95
2022-09-06T21:15:21.318Z,13.77
2022-09-06T21:17:51.244Z,12.40
2022-09-06T21:20:21.079Z,8.82
2022-09-06T21:22:50.976Z,9.00
2022-09-06T21:25:20.877Z,9.63
2022-09-06T21:27:55.134Z,12.07
2022-09-06T21:30:25.585Z,11.18
2022-09-06T21:32:56.601Z,9.95
2022-09-06T21:35:26.604Z,8.05
2022-09-06T21:37:56.240Z,8.38
2022-09-06T21:40:26.967Z,7.65
2022-09-06T21:42:56.935Z,6.70
2022-09-06T21:45:26.765Z,9.48
2022-09-06T21:47:56.772Z,8.75
2022-09-06T21:50:26.727Z,7.22
2022-09-06T21:52:56.577Z,8.50
2022-09-06T21:55:26.521Z,8.35
2022-09-06T21:57:56.444Z,8.15
2022-09-06T22:00:26.118Z,7.38
2022-09-06T22:02:55.844Z,7.30
2022-09-06T22:05:25.500Z,6.88
2022-09-06T22:07:55.525Z,7.80
2022-09-06T22:10:28.336Z,7.65
2022-09-06T22:12:58.222Z,7.07
2022-09-06T22:15:27.944Z,6.97
2022-09-06T22:17:57.652Z,6.90
2022-09-06T22:20:27.290Z,6.75
2022-09-06T22:22:57.001Z,6.50
2022-09-06T22:25:26.752Z,6.32
2022-09-06T22:27:56.366Z,6.55
2022-09-06T22:30:26.943Z,7.53
2022-09-06T22:32:57.653Z,6.70
2022-09-06T22:35:27.382Z,9.27
2022-09-06T22:37:57.274Z,8.70
2022-09-06T22:40:27.063Z,8.82
2022-09-06T22:42:56.740Z,7.90
2022-09-06T22:45:26.443Z,7.95
2022-09-06T22:47:59.237Z,7.68
2022-09-06T22:50:29.165Z,8.77
2022-09-06T22:52:58.880Z,8.45
2022-09-06T22:55:28.549Z,7.93
2022-09-06T22:57:58.463Z,8.48
2022-09-06T23:00:28.842Z,7.28
2022-09-06T23:02:58.695Z,6.93
2022-09-06T23:05:28.408Z,7.43
2022-09-06T23:07:59.094Z,8.13
2022-09-06T23:10:29.094Z,10.15
2022-09-06T23:13:01.724Z,8.90
2022-09-06T23:15:31.843Z,10.07
2022-09-06T23:18:01.490Z,11.73
2022-09-06T23:20:34.345Z,12.20
2022-09-06T23:23:04.017Z,13.13
2022-09-06T23:25:34.130Z,13.85
2022-09-06T23:28:03.861Z,14.40
2022-09-06T23:30:33.692Z,14.38
2022-09-06T23:33:04.467Z,15.68
2022-09-06T23:35:34.196Z,15.32
2022-09-06T23:38:03.858Z,14.73
2022-09-06T23:40:33.752Z,14.00
2022-09-06T23:43:03.661Z,14.32
2022-09-06T23:45:33.373Z,14.93
2022-09-06T23:48:03.366Z,13.43
2022-09-06T23:50:33.305Z,14.50
2022-09-06T23:53:03.257Z,13.73
2022-09-06T23:55:33.332Z,12.90
2022-09-06T23:58:03.215Z,12.70
